Time;durP1;ratioP1;P1;durP2;ratioP2;P2;SDS_P1;SDS_P2;PMS_P1;PMS_P2;Temp;Humidity;BMP_temperature;BMP_pressure;BME280_temperature;BME280_humidity;BME280_pressure;Samples;Min_cycle;Max_cycle;Signal;HPM_P1;HPM_P2
2022/01/16 00:04:24;;;;;;;97.18;41.40;;;2.50;99.90;;;;;;4941845;28;20063;-42
2022/01/16 00:06:51;;;;;;;86.97;38.10;;;2.40;99.90;;;;;;4995006;28;20431;-42
2022/01/16 00:09:18;;;;;;;92.57;39.17;;;2.40;99.90;;;;;;4995332;28;20052;-41
2022/01/16 00:11:44;;;;;;;93.25;40.72;;;2.40;99.90;;;;;;4993947;28;20076;-42
2022/01/16 00:14:12;;;;;;;92.88;38.97;;;2.30;99.90;;;;;;4995396;28;20513;-42
2022/01/16 00:16:40;;;;;;;96.90;39.97;;;2.30;99.90;;;;;;4994150;28;20058;-42
2022/01/16 00:19:06;;;;;;;98.18;39.85;;;2.30;99.90;;;;;;4994821;28;20104;-41
2022/01/16 00:21:36;;;;;;;90.28;39.58;;;2.40;99.90;;;;;;4994435;28;20046;-41
2022/01/16 00:24:03;;;;;;;91.85;38.22;;;2.30;99.90;;;;;;4994757;28;20557;-42
2022/01/16 00:26:30;;;;;;;92.65;38.17;;;2.30;99.90;;;;;;4993698;28;20054;-41
2022/01/16 00:28:56;;;;;;;83.57;37.78;;;2.30;99.90;;;;;;4993579;28;20129;-41
2022/01/16 00:31:24;;;;;;;91.07;38.45;;;2.30;99.90;;;;;;4994566;28;20167;-41
2022/01/16 00:33:51;;;;;;;82.38;35.97;;;2.30;99.90;;;;;;4993449;28;20402;-41
2022/01/16 00:36:19;;;;;;;78.53;33.63;;;2.30;99.90;;;;;;4992930;28;20069;-42
2022/01/16 00:38:45;;;;;;;69.80;33.67;;;2.30;99.90;;;;;;4993359;28;20050;-41
2022/01/16 00:41:12;;;;;;;72.93;32.30;;;2.30;99.90;;;;;;4993691;28;20051;-43
2022/01/16 00:43:39;;;;;;;71.43;32.35;;;2.30;99.90;;;;;;4990415;28;20088;-42
2022/01/16 00:46:06;;;;;;;86.95;35.58;;;2.20;99.90;;;;;;4997571;28;20066;-43
2022/01/16 00:48:34;;;;;;;85.30;36.33;;;2.20;99.90;;;;;;4994069;28;20060;-41
2022/01/16 00:51:01;;;;;;;77.65;32.70;;;2.20;99.90;;;;;;4993239;28;20137;-41
2022/01/16 00:53:27;;;;;;;95.25;36.10;;;2.20;99.90;;;;;;4992400;28;20410;-43
2022/01/16 00:55:54;;;;;;;91.57;36.80;;;2.20;99.90;;;;;;4993214;28;20050;-42
2022/01/16 00:58:21;;;;;;;91.63;36.47;;;2.20;99.90;;;;;;4993383;28;20046;-42
2022/01/16 01:00:47;;;;;;;94.20;37.33;;;2.20;99.90;;;;;;4993541;28;20050;-42
2022/01/16 01:03:14;;;;;;;93.50;38.25;;;2.20;99.90;;;;;;4992523;28;20505;-41
2022/01/16 01:05:42;;;;;;;98.93;39.08;;;2.10;99.90;;;;;;4991730;28;20054;-41
2022/01/16 01:08:09;;;;;;;97.20;37.00;;;2.10;99.90;;;;;;4992899;28;20058;-41
2022/01/16 01:10:38;;;;;;;106.18;39.45;;;2.10;99.90;;;;;;4990794;28;20056;-43
2022/01/16 01:13:10;;;;;;;97.13;38.35;;;2.10;99.90;;;;;;4989758;28;20097;-41
2022/01/16 01:15:42;;;;;;;94.97;37.92;;;2.10;99.90;;;;;;4993731;28;20501;-41
2022/01/16 01:18:09;;;;;;;;;;;2.10;99.90;;;;;;4994364;28;20077;-43
2022/01/16 01:20:36;;;;;;;97.28;36.88;;;2.10;99.90;;;;;;4993485;28;19928;-41
2022/01/16 01:23:04;;;;;;;111.28;41.35;;;2.10;99.90;;;;;;4993344;28;20094;-42
2022/01/16 01:25:30;;;;;;;105.72;39.63;;;2.10;99.90;;;;;;4993053;28;20046;-40
2022/01/16 01:27:57;;;;;;;105.13;40.33;;;2.20;99.90;;;;;;4993204;28;20058;-41
2022/01/16 01:30:24;;;;;;;110.20;40.25;;;2.20;99.90;;;;;;4992934;28;20060;-41
2022/01/16 01:32:53;;;;;;;107.95;40.63;;;2.20;99.90;;;;;;4995122;28;20054;-41
2022/01/16 01:35:20;;;;;;;109.15;41.53;;;2.20;99.90;;;;;;4994056;28;20050;-41
2022/01/16 01:37:46;;;;;;;101.72;39.60;;;2.20;99.90;;;;;;4993535;28;20046;-41
2022/01/16 01:40:16;;;;;;;106.13;40.05;;;2.20;99.90;;;;;;4993025;28;20055;-41
2022/01/16 01:42:47;;;;;;;118.03;42.22;;;2.20;99.90;;;;;;4991785;28;20054;-41
2022/01/16 01:51:08;;;;;;;125.63;44.92;;;2.30;99.90;;;;;;4985935;28;20050;-41
2022/01/16 01:53:34;;;;;;;132.05;44.75;;;2.20;99.90;;;;;;4992028;28;20570;-41
2022/01/16 01:56:03;;;;;;;137.23;47.10;;;2.20;99.90;;;;;;4992074;28;20056;-41
2022/01/16 01:58:30;;;;;;;125.05;46.28;;;2.20;99.90;;;;;;4992602;28;20054;-44
2022/01/16 02:00:56;;;;;;;119.10;43.38;;;2.30;99.90;;;;;;4991717;28;20054;-42
2022/01/16 02:03:29;;;;;;;127.70;44.88;;;2.30;99.90;;;;;;4992329;28;20047;-41
2022/01/16 02:05:56;;;;;;;129.00;44.85;;;2.20;99.90;;;;;;4992438;28;20098;-42
2022/01/16 02:08:23;;;;;;;127.88;46.20;;;2.30;99.90;;;;;;4992478;28;20068;-42
2022/01/16 02:10:50;;;;;;;126.60;45.78;;;2.30;99.90;;;;;;4990864;28;20070;-42
2022/01/16 02:13:24;;;;;;;133.70;46.85;;;2.30;99.90;;;;;;4991868;28;20493;-41
2022/01/16 02:35:05;;;;;;;137.95;44.38;;;2.20;99.90;;;;;;4961859;28;20058;-43
2022/01/16 02:37:32;;;;;;;158.20;47.40;;;2.30;99.90;;;;;;4991876;28;20133;-41
2022/01/16 02:40:07;;;;;;;131.52;42.60;;;2.30;99.90;;;;;;4992460;28;20486;-41
2022/01/16 02:42:37;;;;;;;146.75;44.42;;;2.30;99.90;;;;;;4989368;28;20129;-41
2022/01/16 02:45:06;;;;;;;157.05;46.38;;;2.30;99.90;;;;;;4991753;28;20141;-41
2022/01/16 02:47:33;;;;;;;172.80;48.30;;;2.20;99.90;;;;;;4992087;28;20058;-41
2022/01/16 02:50:00;;;;;;;167.93;46.92;;;2.30;99.90;;;;;;4991780;28;20505;-41
2022/01/16 02:52:27;;;;;;;166.68;45.95;;;2.30;99.90;;;;;;4991350;28;20050;-41
2022/01/16 02:54:55;;;;;;;198.10;50.58;;;2.20;99.90;;;;;;4991069;28;20046;-41
2022/01/16 02:57:23;;;;;;;194.30;50.85;;;2.20;99.90;;;;;;4992886;28;20443;-41
2022/01/16 02:59:51;;;;;;;194.05;50.83;;;2.20;99.90;;;;;;4993220;28;20054;-41
2022/01/16 03:02:19;;;;;;;215.63;52.97;;;2.30;99.90;;;;;;4991637;28;20504;-41
2022/01/16 03:04:46;;;;;;;195.60;51.88;;;2.20;99.90;;;;;;4992207;28;20053;-41
2022/01/16 03:07:13;;;;;;;191.05;46.85;;;2.20;99.90;;;;;;4991504;28;20054;-41
2022/01/16 03:09:55;;;;;;;201.73;51.53;;;2.20;99.90;;;;;;4991619;28;20054;-41
2022/01/16 03:12:25;;;;;;;224.05;52.33;;;2.20;99.90;;;;;;4990792;28;20053;-41
2022/01/16 03:14:52;;;;;;;191.85;51.92;;;2.20;99.90;;;;;;4991493;28;20054;-41
2022/01/16 03:17:23;;;;;;;188.98;51.38;;;2.20;99.90;;;;;;4991598;28;20073;-40
2022/01/16 03:22:34;;;;;;;200.45;51.60;;;2.30;99.90;;;;;;4992391;28;20047;-42
2022/01/16 03:25:01;;;;;;;172.00;49.28;;;2.30;99.90;;;;;;4992275;28;20058;-40
2022/01/16 03:27:29;;;;;;;185.43;48.22;;;2.30;99.90;;;;;;4991833;28;20069;-41
2022/01/16 03:29:57;;;;;;;211.88;54.13;;;2.30;99.90;;;;;;4992805;28;20047;-41
2022/01/16 03:32:24;;;;;;;177.85;50.47;;;2.30;99.90;;;;;;4991155;28;20100;-42
2022/01/16 03:34:51;;;;;;;166.70;48.00;;;2.30;99.90;;;;;;4991074;28;20048;-41
2022/01/16 03:37:17;;;;;;;181.25;48.55;;;2.30;99.90;;;;;;4991884;28;20467;-42
2022/01/16 03:39:44;;;;;;;172.32;49.13;;;2.40;99.90;;;;;;4991885;28;20050;-42
2022/01/16 03:42:11;;;;;;;172.27;48.10;;;2.40;99.90;;;;;;4989786;28;20128;-42
2022/01/16 03:44:39;;;;;;;173.13;47.53;;;2.40;99.90;;;;;;4991501;28;20454;-41
2022/01/16 03:47:06;;;;;;;153.07;45.95;;;2.40;99.90;;;;;;4992970;28;20050;-41
2022/01/16 03:49:33;;;;;;;163.98;48.08;;;2.40;99.90;;;;;;4991393;28;20229;-41
2022/01/16 03:52:00;;;;;;;160.30;45.83;;;2.40;99.90;;;;;;4991635;28;20504;-41
2022/01/16 03:54:28;;;;;;;181.07;46.63;;;2.40;99.90;;;;;;4991134;28;20484;-41
2022/01/16 03:56:55;;;;;;;159.77;46.72;;;2.50;99.90;;;;;;4991284;28;20128;-41
2022/01/16 03:59:22;;;;;;;169.15;46.03;;;2.50;99.90;;;;;;4991351;28;20046;-42
2022/01/16 04:01:50;;;;;;;174.60;45.35;;;2.50;99.90;;;;;;4991701;28;20051;-41
2022/01/16 04:04:16;;;;;;;157.60;44.60;;;2.50;99.90;;;;;;4990899;28;20056;-42
2022/01/16 04:06:43;;;;;;;179.20;46.92;;;2.50;99.90;;;;;;4993502;28;20057;-43
2022/01/16 04:09:10;;;;;;;169.63;46.55;;;2.50;99.90;;;;;;4994582;28;20409;-41
2022/01/16 04:11:42;;;;;;;171.07;49.17;;;2.50;99.90;;;;;;4992745;28;20130;-43
2022/01/16 04:14:15;;;;;;;172.20;46.10;;;2.50;99.90;;;;;;4976735;28;20050;-42
2022/01/16 04:16:41;;;;;;;184.75;48.08;;;2.60;99.90;;;;;;4988720;28;20483;-42
2022/01/16 04:19:09;;;;;;;174.57;47.47;;;2.60;99.90;;;;;;4995556;28;20054;-43
2022/01/16 04:21:37;;;;;;;157.60;46.80;;;2.60;99.90;;;;;;4995339;28;20049;-41
2022/01/16 04:24:05;;;;;;;180.23;47.22;;;2.60;99.90;;;;;;4994987;28;20125;-41
2022/01/16 04:26:31;;;;;;;166.57;47.20;;;2.60;99.90;;;;;;4994947;28;20498;-42
2022/01/16 04:28:58;;;;;;;166.98;47.05;;;2.70;99.90;;;;;;4994412;28;20056;-42
2022/01/16 04:31:25;;;;;;;184.10;49.42;;;2.70;99.90;;;;;;4994148;28;20054;-42
2022/01/16 04:33:51;;;;;;;162.10;45.03;;;2.70;99.90;;;;;;4993393;28;20134;-41
2022/01/16 04:36:19;;;;;;;170.68;46.28;;;2.70;99.90;;;;;;4993879;28;20078;-42
2022/01/16 04:38:48;;;;;;;175.85;48.25;;;2.70;99.90;;;;;;4992357;28;20046;-42
2022/01/16 04:44:01;;;;;;;182.68;46.88;;;2.70;99.90;;;;;;4994910;28;20538;-42
2022/01/16 04:46:28;;;;;;;169.95;46.22;;;2.80;99.90;;;;;;4995298;28;20247;-41
2022/01/16 04:48:56;;;;;;;176.13;46.25;;;2.80;99.90;;;;;;4994553;28;20077;-43
2022/01/16 04:51:24;;;;;;;181.27;48.92;;;2.80;99.90;;;;;;4992758;28;20129;-42
2022/01/16 04:53:51;;;;;;;177.88;48.90;;;2.80;99.90;;;;;;4993459;28;20061;-41
2022/01/16 04:56:18;;;;;;;190.40;49.60;;;2.80;99.90;;;;;;4993487;28;20042;-41
2022/01/16 04:58:44;;;;;;;166.65;47.47;;;2.90;99.90;;;;;;4993768;28;20089;-44
2022/01/16 05:01:11;;;;;;;182.43;48.45;;;2.90;99.90;;;;;;4993920;28;20054;-43
2022/01/16 05:03:38;;;;;;;190.20;49.95;;;2.90;99.90;;;;;;4993201;28;20065;-44
2022/01/16 05:06:05;;;;;;;176.93;49.75;;;2.90;99.90;;;;;;4993409;28;20054;-43
2022/01/16 05:08:33;;;;;;;173.80;47.63;;;2.90;99.90;;;;;;4991309;28;20070;-42
2022/01/16 05:11:00;;;;;;;187.70;48.85;;;2.90;99.90;;;;;;4987567;28;20128;-42
2022/01/16 05:13:31;;;;;;;166.40;47.67;;;2.90;99.90;;;;;;4993701;28;20050;-41
2022/01/16 05:18:43;;;;;;;172.55;47.47;;;2.90;99.90;;;;;;4993242;28;19925;-42
2022/01/16 05:21:09;;;;;;;184.57;48.53;;;2.90;99.90;;;;;;4993326;28;20121;-42
2022/01/16 05:23:37;;;;;;;168.77;46.22;;;2.90;99.90;;;;;;4992940;28;20084;-43
2022/01/16 05:26:05;;;;;;;182.05;49.33;;;3.00;99.90;;;;;;4993876;28;20054;-42
2022/01/16 05:28:32;;;;;;;187.30;49.88;;;3.00;99.90;;;;;;4992340;28;20053;-43
2022/01/16 05:30:59;;;;;;;162.90;49.50;;;3.00;99.90;;;;;;4992516;28;20093;-42
2022/01/16 05:33:25;;;;;;;178.38;49.80;;;3.00;99.90;;;;;;4993913;28;20506;-42
2022/01/16 05:35:52;;;;;;;178.02;47.90;;;3.00;99.90;;;;;;4993379;28;20060;-42
2022/01/16 05:38:19;;;;;;;176.45;49.15;;;3.00;99.90;;;;;;4992982;28;20058;-42
2022/01/16 05:40:47;;;;;;;190.70;50.85;;;3.10;99.90;;;;;;4992146;28;20066;-43
2022/01/16 05:43:14;;;;;;;171.48;49.22;;;3.10;99.90;;;;;;4993465;28;20525;-42
2022/01/16 05:45:40;;;;;;;181.82;49.13;;;3.10;99.90;;;;;;4991737;28;20050;-43
2022/01/16 05:48:07;;;;;;;163.32;47.95;;;3.10;99.90;;;;;;4991982;28;20057;-43
2022/01/16 05:50:34;;;;;;;171.27;49.65;;;3.10;99.90;;;;;;4993591;28;20404;-43
2022/01/16 05:53:00;;;;;;;178.10;50.88;;;3.10;99.90;;;;;;4991748;28;20061;-42
2022/01/16 05:55:31;;;;;;;167.02;47.65;;;3.20;99.90;;;;;;4993478;28;20053;-42
2022/01/16 05:57:59;;;;;;;187.32;52.10;;;3.20;99.90;;;;;;4991471;28;20065;-43
2022/01/16 06:00:26;;;;;;;157.40;47.42;;;3.20;99.90;;;;;;4990651;28;20050;-46
2022/01/16 06:02:53;;;;;;;183.25;50.95;;;3.20;99.90;;;;;;4990666;28;20483;-44
2022/01/16 06:05:19;;;;;;;168.93;49.65;;;3.20;99.90;;;;;;4991623;28;20046;-43
2022/01/16 06:07:52;;;;;;;173.40;49.95;;;3.20;99.90;;;;;;4991479;28;20050;-42
2022/01/16 06:10:18;;;;;;;188.25;49.90;;;3.30;99.90;;;;;;4991308;28;20054;-42
2022/01/16 06:12:45;;;;;;;163.93;47.95;;;3.30;99.90;;;;;;4992097;28;20525;-42
2022/01/16 06:15:13;;;;;;;171.93;50.20;;;3.30;99.90;;;;;;4992613;28;20133;-42
2022/01/16 06:17:40;;;;;;;183.07;51.05;;;3.30;99.90;;;;;;4993430;28;20458;-43
2022/01/16 06:20:07;;;;;;;168.05;49.63;;;3.30;99.90;;;;;;4992845;28;20089;-43
2022/01/16 06:22:34;;;;;;;185.88;51.05;;;3.30;99.90;;;;;;4993051;28;20046;-42
2022/01/16 06:25:01;;;;;;;181.45;49.58;;;3.30;99.90;;;;;;4990833;28;20113;-43
2022/01/16 06:27:27;;;;;;;175.13;50.33;;;3.40;99.90;;;;;;4991687;28;20073;-43
2022/01/16 06:29:54;;;;;;;159.80;49.17;;;3.40;99.90;;;;;;4992248;28;20052;-43
2022/01/16 06:32:22;;;;;;;197.30;52.42;;;3.30;99.90;;;;;;4992074;28;20049;-42
2022/01/16 06:34:49;;;;;;;178.70;48.25;;;3.40;99.90;;;;;;4992138;28;20105;-42
2022/01/16 06:37:15;;;;;;;191.35;51.10;;;3.40;99.90;;;;;;4992300;28;20125;-43
2022/01/16 06:39:42;;;;;;;183.88;51.97;;;3.40;99.90;;;;;;4991720;28;20057;-44
2022/01/16 06:42:10;;;;;;;193.70;51.70;;;3.40;99.90;;;;;;4991258;28;20054;-42
2022/01/16 06:44:36;;;;;;;190.10;51.55;;;3.40;99.90;;;;;;4991076;28;20054;-42
2022/01/16 06:47:04;;;;;;;171.75;50.50;;;3.40;99.90;;;;;;4989986;28;20133;-43
2022/01/16 06:49:32;;;;;;;186.13;51.83;;;3.40;99.90;;;;;;4990816;28;20058;-42
2022/01/16 06:51:58;;;;;;;166.82;49.65;;;3.40;99.90;;;;;;4991850;28;20483;-43
2022/01/16 06:54:25;;;;;;;174.10;50.05;;;3.50;99.90;;;;;;4990868;28;20090;-43
2022/01/16 06:56:52;;;;;;;187.23;52.03;;;3.50;99.90;;;;;;4991212;28;20064;-42
2022/01/16 06:59:19;;;;;;;188.77;51.80;;;3.50;99.90;;;;;;4991072;28;20065;-44
2022/01/16 07:01:45;;;;;;;206.13;53.08;;;3.50;99.90;;;;;;4989677;28;20042;-42
2022/01/16 07:04:12;;;;;;;190.43;51.63;;;3.50;99.90;;;;;;4991263;28;20122;-43
2022/01/16 07:06:40;;;;;;;175.27;50.67;;;3.50;99.90;;;;;;4990849;28;20469;-43
2022/01/16 07:09:07;;;;;;;195.73;52.55;;;3.60;99.90;;;;;;4990738;28;20509;-44
2022/01/16 07:11:33;;;;;;;185.68;53.85;;;3.60;99.90;;;;;;4992546;28;20053;-44
2022/01/16 07:14:00;;;;;;;181.38;50.58;;;3.60;99.90;;;;;;4990685;28;20062;-44
2022/01/16 07:16:27;;;;;;;179.93;51.58;;;3.60;99.90;;;;;;4991709;28;20471;-43
2022/01/16 07:18:53;;;;;;;195.32;53.17;;;3.60;99.90;;;;;;4990647;28;20053;-43
2022/01/16 07:21:20;;;;;;;186.60;52.13;;;3.60;99.90;;;;;;4989770;28;20051;-43
2022/01/16 07:23:49;;;;;;;173.50;50.13;;;3.70;99.90;;;;;;4986391;28;20050;-43
2022/01/16 07:26:15;;;;;;;172.13;50.03;;;3.70;99.90;;;;;;4991489;28;20145;-43
2022/01/16 07:28:42;;;;;;;184.13;52.72;;;3.70;99.90;;;;;;4989517;28;20138;-43
2022/01/16 07:31:09;;;;;;;167.82;51.83;;;3.70;99.90;;;;;;4992687;28;20060;-42
2022/01/16 07:33:35;;;;;;;192.65;53.83;;;3.70;99.90;;;;;;4990997;28;20487;-44
2022/01/16 07:36:02;;;;;;;175.93;52.88;;;3.80;99.90;;;;;;4992346;28;20054;-43
2022/01/16 07:38:29;;;;;;;174.15;52.33;;;3.80;99.90;;;;;;4990326;28;20078;-43
2022/01/16 07:40:57;;;;;;;186.75;52.33;;;3.80;99.90;;;;;;4993901;28;20384;-43
2022/01/16 07:43:24;;;;;;;196.65;56.33;;;3.90;99.90;;;;;;4994012;28;20527;-43
2022/01/16 07:45:50;;;;;;;191.52;54.97;;;3.90;99.90;;;;;;4993579;28;20054;-43
2022/01/16 07:48:17;;;;;;;175.70;51.63;;;3.90;99.90;;;;;;4993929;28;20065;-44
2022/01/16 07:50:44;;;;;;;169.27;51.05;;;4.00;99.90;;;;;;4993965;28;20038;-41
2022/01/16 07:53:11;;;;;;;169.20;53.95;;;4.00;99.90;;;;;;4993652;28;20133;-42
2022/01/16 07:55:37;;;;;;;175.48;53.72;;;4.00;99.90;;;;;;4995153;28;20414;-43
2022/01/16 07:58:05;;;;;;;176.30;55.55;;;4.10;99.90;;;;;;4993423;28;20046;-43
2022/01/16 08:00:32;;;;;;;173.82;55.58;;;4.10;99.90;;;;;;4994743;28;20096;-43
2022/01/16 08:02:59;;;;;;;179.15;55.08;;;4.20;99.90;;;;;;4993416;28;20141;-44
2022/01/16 08:05:26;;;;;;;170.10;55.20;;;4.20;99.90;;;;;;4994249;28;20396;-45
2022/01/16 08:07:53;;;;;;;165.60;54.40;;;4.20;99.90;;;;;;4993676;28;20054;-42
2022/01/16 08:10:19;;;;;;;173.52;54.90;;;4.20;99.90;;;;;;4994175;28;20046;-44
2022/01/16 08:12:46;;;;;;;168.45;54.55;;;4.30;99.90;;;;;;4986278;28;20073;-44
2022/01/16 08:15:14;;;;;;;166.75;54.35;;;4.30;99.90;;;;;;4994123;28;20133;-43
2022/01/16 08:17:41;;;;;;;170.32;54.97;;;4.30;99.90;;;;;;4994145;28;20137;-44
2022/01/16 08:20:08;;;;;;;164.40;53.22;;;4.40;99.90;;;;;;4994945;28;20438;-44
2022/01/16 08:22:35;;;;;;;157.43;50.53;;;4.40;99.90;;;;;;4991531;28;20090;-46
2022/01/16 08:25:02;;;;;;;167.90;53.33;;;4.40;99.90;;;;;;4993574;28;20511;-47
2022/01/16 08:27:28;;;;;;;163.60;52.88;;;4.40;99.90;;;;;;4994056;28;20043;-44
2022/01/16 08:29:55;;;;;;;171.43;52.72;;;4.50;99.90;;;;;;4993837;28;20054;-45
2022/01/16 08:32:23;;;;;;;158.65;53.50;;;4.50;99.90;;;;;;4989923;28;20101;-44
2022/01/16 08:34:50;;;;;;;158.95;50.97;;;4.50;99.90;;;;;;4989941;28;20050;-43
2022/01/16 08:37:16;;;;;;;150.45;52.22;;;4.50;99.90;;;;;;4990707;28;20080;-44
2022/01/16 08:39:43;;;;;;;141.43;50.08;;;4.50;99.90;;;;;;4993610;28;20050;-43
2022/01/16 08:42:10;;;;;;;147.25;49.70;;;4.60;99.90;;;;;;4992768;28;20054;-43
2022/01/16 08:44:38;;;;;;;148.52;52.28;;;4.60;99.90;;;;;;4994045;28;20482;-45
2022/01/16 08:47:06;;;;;;;144.77;50.10;;;4.60;99.90;;;;;;4994809;28;20050;-43
2022/01/16 08:49:34;;;;;;;139.98;50.00;;;4.60;99.90;;;;;;4992895;28;20414;-42
2022/01/16 08:52:00;;;;;;;136.38;49.22;;;4.60;99.90;;;;;;4992019;28;20058;-44
2022/01/16 08:54:27;;;;;;;130.63;47.88;;;4.70;99.90;;;;;;4992978;28;20505;-43
2022/01/16 08:56:54;;;;;;;131.82;49.10;;;4.70;99.90;;;;;;4993263;28;20058;-42
2022/01/16 08:59:20;;;;;;;134.50;49.08;;;4.70;99.90;;;;;;5004360;28;20054;-45
2022/01/16 09:01:47;;;;;;;141.50;50.25;;;4.70;99.90;;;;;;4993862;28;20129;-44
2022/01/16 09:04:14;;;;;;;147.73;50.70;;;4.70;99.90;;;;;;4990703;28;20088;-42
2022/01/16 09:06:42;;;;;;;142.40;50.35;;;4.80;99.90;;;;;;4992490;28;20042;-43
2022/01/16 09:09:08;;;;;;;129.57;47.00;;;4.80;99.90;;;;;;4992219;28;20410;-45
2022/01/16 09:11:35;;;;;;;116.70;48.13;;;4.90;99.90;;;;;;4991914;28;20046;-44
2022/01/16 09:14:02;;;;;;;128.18;48.80;;;4.90;99.90;;;;;;4992437;28;20050;-44
2022/01/16 09:16:30;;;;;;;118.25;45.85;;;4.90;99.90;;;;;;4992568;28;20463;-43
2022/01/16 09:18:57;;;;;;;116.18;45.25;;;5.00;99.90;;;;;;4990262;28;20639;-45
2022/01/16 09:21:23;;;;;;;126.85;54.08;;;5.00;99.90;;;;;;4993906;28;20129;-44
2022/01/16 09:23:51;;;;;;;155.23;66.60;;;5.10;99.90;;;;;;4992114;28;20053;-47
2022/01/16 09:26:18;;;;;;;115.65;46.22;;;5.20;99.90;;;;;;4991695;28;20395;-43
2022/01/16 09:28:45;;;;;;;108.80;45.00;;;5.20;99.90;;;;;;4986380;28;20458;-42
2022/01/16 09:31:12;;;;;;;102.35;44.58;;;5.20;99.90;;;;;;4990597;28;20159;-44
2022/01/16 09:33:39;;;;;;;107.72;44.63;;;5.30;99.90;;;;;;4990859;28;20145;-43
2022/01/16 09:36:07;;;;;;;102.82;44.05;;;5.30;99.90;;;;;;4992625;28;20073;-42
2022/01/16 09:38:34;;;;;;;107.13;44.58;;;5.30;99.90;;;;;;4993064;28;20054;-44
2022/01/16 09:41:02;;;;;;;99.00;42.33;;;5.30;99.90;;;;;;4992184;28;20046;-44
2022/01/16 09:43:29;;;;;;;99.32;41.95;;;5.40;99.90;;;;;;4993637;28;20039;-45
2022/01/16 09:45:55;;;;;;;99.90;42.85;;;5.40;99.90;;;;;;4991676;28;20058;-43
2022/01/16 09:48:22;;;;;;;101.43;44.47;;;5.40;99.90;;;;;;4990805;28;20064;-45
2022/01/16 09:50:49;;;;;;;98.90;41.75;;;5.50;99.90;;;;;;4992798;28;20057;-44
2022/01/16 09:53:15;;;;;;;93.18;40.85;;;5.50;99.90;;;;;;4991662;28;20052;-45
2022/01/16 09:55:42;;;;;;;93.28;41.97;;;5.50;99.90;;;;;;4986805;28;20051;-44
2022/01/16 09:58:10;;;;;;;89.93;41.28;;;5.50;99.90;;;;;;4991861;28;20053;-44
2022/01/16 10:00:37;;;;;;;95.75;41.88;;;5.60;99.90;;;;;;4991645;28;20130;-43
2022/01/16 10:03:05;;;;;;;100.70;40.83;;;5.60;99.90;;;;;;4992048;28;20133;-44
2022/01/16 10:05:34;;;;;;;90.63;40.97;;;5.60;99.90;;;;;;4991888;28;20050;-42
2022/01/16 10:08:02;;;;;;;87.93;39.13;;;5.60;99.90;;;;;;4990200;28;20070;-43
2022/01/16 10:10:29;;;;;;;89.63;41.30;;;5.60;99.90;;;;;;4984446;28;20508;-43
2022/01/16 10:13:04;;;;;;;89.63;40.30;;;5.60;99.90;;;;;;4992794;28;20052;-42
2022/01/16 10:15:32;;;;;;;88.47;38.30;;;5.70;99.90;;;;;;4988684;28;20054;-42
2022/01/16 10:18:00;;;;;;;90.60;40.92;;;5.70;99.90;;;;;;4990858;28;20042;-44
2022/01/16 10:20:28;;;;;;;83.65;37.42;;;5.70;99.90;;;;;;4992638;28;20050;-42
2022/01/16 10:22:55;;;;;;;90.63;39.17;;;5.70;99.90;;;;;;4987841;28;20136;-44
2022/01/16 10:25:36;;;;;;;86.20;40.58;;;5.70;99.90;;;;;;4988143;28;20060;-42
2022/01/16 10:28:03;;;;;;;84.70;38.15;;;5.70;99.90;;;;;;4989504;28;20141;-42
2022/01/16 10:30:40;;;;;;;78.68;36.65;;;5.70;99.90;;;;;;4989951;28;20490;-43
2022/01/16 10:33:10;;;;;;;82.35;38.05;;;5.70;99.90;;;;;;4990110;28;20060;-44
2022/01/16 10:35:37;;;;;;;75.63;37.15;;;5.80;99.90;;;;;;4991856;28;20050;-45
2022/01/16 10:38:04;;;;;;;81.60;37.50;;;5.70;99.90;;;;;;4987703;28;20054;-43
2022/01/16 10:40:32;;;;;;;82.20;35.97;;;5.80;99.90;;;;;;4986854;28;20050;-42
2022/01/16 10:43:05;;;;;;;79.18;35.08;;;5.80;99.90;;;;;;4990837;28;20052;-45
2022/01/16 10:45:32;;;;;;;69.13;33.35;;;5.80;99.90;;;;;;4990406;28;20054;-43
2022/01/16 10:48:00;;;;;;;65.07;32.67;;;5.90;99.90;;;;;;4992865;28;20054;-43
2022/01/16 10:50:28;;;;;;;73.75;32.67;;;5.90;99.90;;;;;;4990302;28;20074;-43
2022/01/16 10:53:00;;;;;;;65.18;30.80;;;5.90;99.90;;;;;;4990024;28;20054;-45
2022/01/16 10:55:35;;;;;;;58.33;30.17;;;5.90;99.90;;;;;;4989169;28;20517;-44
2022/01/16 10:58:06;;;;;;;62.97;29.98;;;6.00;99.90;;;;;;4989713;28;20050;-45
2022/01/16 11:00:33;;;;;;;60.22;27.60;;;6.00;99.90;;;;;;4989943;28;20148;-44
2022/01/16 11:03:02;;;;;;;55.47;26.70;;;6.00;99.90;;;;;;4988552;28;20060;-45
2022/01/16 11:05:29;;;;;;;56.80;26.95;;;6.00;99.90;;;;;;4990594;28;20137;-44
2022/01/16 11:07:57;;;;;;;57.38;25.70;;;6.00;99.90;;;;;;4990254;28;20046;-45
2022/01/16 11:10:27;;;;;;;56.05;26.20;;;6.10;99.90;;;;;;4989874;28;20066;-45
2022/01/16 11:12:55;;;;;;;50.17;24.80;;;6.10;99.90;;;;;;4992354;28;20042;-43
2022/01/16 11:15:21;;;;;;;53.15;25.63;;;6.10;99.90;;;;;;4991453;28;20046;-45
2022/01/16 11:17:48;;;;;;;46.40;25.48;;;6.10;99.90;;;;;;4994136;28;20046;-45
2022/01/16 11:20:18;;;;;;;51.03;24.02;;;6.20;99.90;;;;;;4995079;28;20418;-42
2022/01/16 11:22:59;;;;;;;51.72;22.40;;;6.20;99.90;;;;;;5011224;28;20487;-45
2022/01/16 11:25:31;;;;;;;52.42;22.45;;;6.20;99.90;;;;;;4994636;28;20129;-44
2022/01/16 11:28:00;;;;;;;49.47;22.00;;;6.20;99.90;;;;;;4991986;28;20521;-44
2022/01/16 11:30:28;;;;;;;51.10;22.70;;;6.20;99.90;;;;;;4993699;28;20485;-46
2022/01/16 11:32:54;;;;;;;45.10;19.83;;;6.20;99.90;;;;;;4995059;28;20051;-44
2022/01/16 11:35:23;;;;;;;48.78;20.05;;;6.20;99.90;;;;;;4994689;28;20266;-43
2022/01/16 11:37:49;;;;;;;42.97;18.02;;;6.30;99.90;;;;;;4992444;28;20062;-45
2022/01/16 11:40:27;;;;;;;38.65;18.08;;;6.20;99.90;;;;;;4992919;28;20054;-45
2022/01/16 11:43:14;;;;;;;39.45;17.60;;;6.30;99.90;;;;;;4994666;28;20046;-49
2022/01/16 11:45:52;;;;;;;42.15;17.17;;;6.30;99.90;;;;;;4993122;28;20406;-43
2022/01/16 11:48:20;;;;;;;39.58;16.45;;;6.30;99.90;;;;;;4994738;28;20042;-44
2022/01/16 11:50:49;;;;;;;42.33;16.35;;;6.30;99.90;;;;;;4987974;28;20486;-45
2022/01/16 11:53:49;;;;;;;36.47;15.40;;;6.30;99.90;;;;;;4991283;28;20053;-46
2022/01/16 11:56:58;;;;;;;30.05;15.50;;;6.40;99.90;;;;;;4990524;28;20133;-45
2022/01/16 11:59:25;;;;;;;36.30;14.75;;;6.40;99.90;;;;;;4988044;28;20046;-45
2022/01/16 12:01:53;;;;;;;29.90;13.88;;;6.40;99.90;;;;;;4990892;28;20138;-44
2022/01/16 12:04:48;;;;;;;34.08;13.95;;;6.40;99.90;;;;;;4993291;28;20089;-45
2022/01/16 12:07:45;;;;;;;29.75;12.82;;;6.40;99.90;;;;;;4986357;28;20054;-45
2022/01/16 12:10:12;;;;;;;29.70;12.40;;;6.50;99.90;;;;;;4988378;28;20407;-45
2022/01/16 12:12:39;;;;;;;31.70;12.05;;;6.40;99.90;;;;;;4992341;28;20501;-45
2022/01/16 12:15:06;;;;;;;41.80;19.85;;;6.40;99.90;;;;;;4990415;28;20137;-42
2022/01/16 12:17:33;;;;;;;26.08;11.55;;;6.40;99.90;;;;;;4995303;28;20138;-42
2022/01/16 12:20:00;;;;;;;32.60;12.32;;;6.40;99.90;;;;;;4993800;28;20043;-46
2022/01/16 12:22:43;;;;;;;25.15;12.23;;;6.50;99.90;;;;;;4992240;28;20062;-45
2022/01/16 12:25:16;;;;;;;24.83;11.07;;;6.50;99.90;;;;;;4991871;28;20398;-43
2022/01/16 12:27:49;;;;;;;25.65;10.68;;;6.50;99.90;;;;;;4991218;28;20141;-46
2022/01/16 12:30:38;;;;;;;28.98;10.40;;;6.60;99.90;;;;;;4993013;28;20501;-45
2022/01/16 12:33:09;;;;;;;29.50;10.70;;;6.60;99.90;;;;;;4991057;28;20046;-46
2022/01/16 12:36:11;;;;;;;24.52;10.18;;;6.60;99.90;;;;;;4992120;28;20133;-45
2022/01/16 12:38:47;;;;;;;23.92;9.65;;;6.60;99.90;;;;;;4993333;28;20050;-45
2022/01/16 12:41:16;;;;;;;24.45;9.88;;;6.60;99.90;;;;;;4991569;28;20053;-49
2022/01/16 12:43:47;;;;;;;23.27;9.48;;;6.70;99.90;;;;;;4992367;28;20058;-45
2022/01/16 12:46:15;;;;;;;24.30;9.55;;;6.70;99.90;;;;;;4991453;28;20081;-45
2022/01/16 12:48:42;;;;;;;28.98;10.55;;;6.70;99.90;;;;;;4991022;28;20086;-46
2022/01/16 12:51:09;;;;;;;23.45;9.02;;;6.70;99.90;;;;;;4992852;28;20046;-44
2022/01/16 12:53:37;;;;;;;23.63;9.07;;;6.70;99.90;;;;;;4985551;28;20130;-43
2022/01/16 12:56:29;;;;;;;23.83;9.60;;;6.80;99.90;;;;;;4994057;28;20491;-45
2022/01/16 12:58:57;;;;;;;20.97;9.90;;;6.80;99.90;;;;;;4991839;28;20065;-44
2022/01/16 13:01:24;;;;;;;26.92;9.60;;;6.80;99.90;;;;;;4994067;28;20337;-45
2022/01/16 13:03:51;;;;;;;24.65;9.63;;;6.80;99.90;;;;;;4989817;28;20489;-45
2022/01/16 13:06:22;;;;;;;18.88;9.52;;;6.80;99.90;;;;;;4990250;28;20078;-45
2022/01/16 13:09:00;;;;;;;22.42;8.95;;;6.80;99.90;;;;;;4991570;28;20042;-43
2022/01/16 13:11:30;;;;;;;19.48;10.02;;;6.90;99.90;;;;;;4992312;28;20475;-43
2022/01/16 13:13:57;;;;;;;30.30;11.45;;;6.80;99.90;;;;;;4989238;28;20550;-45